Página principal
METAR-TAF:

METAR-TAF

Aeroportos :

La Palma, Espanha

latitude: 28-37N, longitude: 017-45W, altura: 29 m

Observação actual do tempo

O boletim foi feito há 36 minutos, às 22:00 UTC
Vento 3 kt de oes-noroeste, variando entre oeste e nor-noroeste
Temperatura 16°C
Humidade 68%
Pressão 1023 hPa
Visibilidade 10 km ou mais

METAR: GCLA 172200Z AUTO 30003KT 280V340 9999 NCD 16/10 Q1023

Hora: 22:36 (22:36 UTC)

Previsão

O boletim foi feito há 2 horas e 36 minutos, às 20:00 UTC
Previsão válida de 17 às 21 UTC a 18 às 21 UTC
Vento 5 kt de noroeste
Visibilidade 10 km ou mais
Poucas nuvensa uma altura de 2500 ft
Tornando-se
de 18 às 04 UTC a 18 às 06 UTC
Vento 14 kt de nor-nordeste
Probabilidade 40% :
Temporariamente
de 18 às 05 UTC a 18 às 12 UTC
Vento 15 kt de nor-nordeste com rajadas de 25 kt
chuva

TAF: GCLA 172000Z 1721/1821 32005KT 9999 FEW025 TX20/1814Z TN15/1806Z BECMG 1804/1806 02014KT PROB40 TEMPO 1805/1812 02015G25KT RA

Observações e previsões do tempo de mais de 4000 aeroportos (mensagens METAR e TAF).

As estações disponíveis são os pontos amarelos e vermelhos sobre o mapa.

Mova o rato sobre o mapa para ver o nome da estação.

Depois clique no ponto para visualizar as observações e previsões meteorológicas.

Para alterar o mapa : clique nos botões verdes com uma cruz preta para aumentar o zoom; no botão verde com uma pitada de zoom; ou nas setas verdes para mapas adjacentes.


METAR-TAF: